PASV/SVW METAR and TAF weather

Enter ICAO airport designator
Station Type Date Time Source
PASV METAR 2022/01/28 04:28 UTC NOAA

PASV 280428Z AUTO 35009G18KT 250V120 1/2SM -SN BR VV004 M20/M22 A2959 RMK AO2 SLP084 $


Station Type Date Time Source
PASV Decoded METAR 2022/01/28 04:28 UTC NOAA

Sparrevohn Airways Facilities Sector, AK, United States (PASV) 61-06N 155-34W
Jan 27, 2022 - 11:28 PM EST / 2022.01.28 0428 UTC
Wind: from the N (350 degrees) at 10 MPH (9 KT) gusting to 21 MPH (18 KT) (direction variable):0
Visibility: 1/2 mile(s):0
Sky conditions: obscured
Weather: light snow; mist
Temperature: -4 F (-20 C)
Windchill: -20 F (-29 C):2
Dew Point: -7 F (-22 C)
Relative Humidity: 84%
Pressure (altimeter): 29.59 in. Hg (1002 hPa)
ob: PASV 280428Z AUTO 35009G18KT 250V120 1/2SM -SN BR VV004 M20/M22 A2959 RMK AO2 SLP084
cycle: 4

Station Type Date Time Source
PASV TAF 2012/01/12 14:57 UTC NOAA

TAF
AMD PASV 1214/1320 33010G15KT 4800 -SN BLSN SCT003 SCT110 QNH2984INS
BECMG 1221/1222 VRB06KT 9999 NSW FEW010 SCT110 QNH3000INS LIMITED METWATCH TM25/1300Z TM37/1315Z
AMD 121453

Example: see airport list